Data for 05/21/2007

Time Sea-Level Adjusted Pressure Absolute Pressure Temperature Relative Humidity Dew Point   
(mb) (inHg) (mb) (inHg) (C) (F) (%) (C) (F)
00:05 1009 29.8 838 24.75 9.3 48.7 89 7.6 45.7
00:10 1009 29.8 838 24.75 9.3 48.7 89 7.6 45.7
00:15 1009 29.8 838 24.75 9.2 48.6 89 7.6 45.7
00:20 1009 29.8 838 24.75 9.2 48.6 89 7.4 45.4
00:25 1009 29.8 838 24.75 9.2 48.5 90 7.6 45.6
00:30 1009 29.8 838 24.75 9.2 48.5 88 7.3 45.1
00:35 1009 29.8 838 24.75 9.3 48.7 87 7.2 44.9
00:40 1009 29.8 838 24.75 9.3 48.7 87 7.3 45.1
00:45 1009 29.8 838 24.75 9.3 48.7 87 7.2 44.9
00:50 1009 29.8 838 24.75 9.2 48.6 87 7.1 44.8
00:55 1009 29.8 838 24.75 9.2 48.5 86 7 44.6
01:00 1009 29.8 838 24.75 9.2 48.5 87 7.1 44.8
01:05 1009 29.8 838 24.75 9.2 48.6 87 7.2 44.9
01:10 1009 29.8 838 24.75 9.1 48.5 86 7 44.5
01:15 1009 29.8 838 24.75 9 48.3 87 7.1 44.7
01:20 1009 29.8 838 24.75 8.8 47.9 89 7.1 44.8
01:25 1009 29.8 838 24.75 8.8 47.8 88 6.8 44.3
01:30 1009 29.8 838 24.75 8.4 47.1 88 6.5 43.7
01:35 1009 29.8 838 24.75 8.2 46.7 89 6.5 43.7
01:40 1009 29.8 838 24.75 7.8 46.1 91 6.4 43.5
01:45 1009 29.8 838 24.75 7.7 45.8 91 6.3 43.4
01:50 1009 29.8 838 24.75 7.6 45.7 92 6.5 43.6
01:55 1009 29.8 838 24.75 7.6 45.6 92 6.3 43.3
02:00 1009 29.8 839 24.78 7.5 45.5 92 6.3 43.3
02:05 1010 29.83 839 24.78 7.4 45.4 92 6.2 43.1
02:10 1010 29.83 839 24.78 7.2 45 93 6.1 43
02:15 1010 29.83 839 24.78 7 44.5 94 6 42.8
02:20 1010 29.83 839 24.78 6.8 44.3 94 5.9 42.6
02:25 1010 29.83 839 24.78 6.8 44.2 95 6 42.8
02:30 1010 29.83 839 24.78 6.7 44.1 94 5.9 42.6
02:35 1010 29.83 839 24.78 6.8 44.2 94 5.9 42.6
02:40 1010 29.83 839 24.78 6.9 44.3 94 5.9 42.6
02:45 1010 29.83 839 24.78 7 44.7 93 6 42.8
02:50 1010 29.83 839 24.78 7.1 44.7 93 6 42.8
02:55 1010 29.83 839 24.78 7 44.6 92 5.7 42.3
03:00 1009 29.8 839 24.78 7 44.5 92 5.7 42.2
03:05 1009 29.8 839 24.78 6.6 43.9 92 5.5 41.8
03:10 1009 29.8 838 24.75 6.4 43.4 92 5.2 41.3
03:15 1009 29.8 838 24.75 6.3 43.4 92 5.1 41.2
03:20 1009 29.8 838 24.75 6.4 43.5 91 5.1 41.2
03:25 1009 29.8 838 24.75 6.3 43.4 91 4.9 40.8
03:30 1009 29.8 838 24.75 6.3 43.3 91 4.9 40.8
03:35 1009 29.8 838 24.75 6.4 43.6 89 4.8 40.7
03:40 1009 29.8 838 24.75 6.4 43.5 88 4.6 40.2
03:45 1009 29.8 838 24.75 6.4 43.5 87 4.5 40
03:50 1009 29.8 838 24.75 6.2 43.1 89 4.4 40
03:55 1009 29.8 838 24.75 6.1 42.9 86 4 39.2
04:00 1009 29.8 838 24.75 6.1 42.9 87 4 39.2
04:05 1009 29.8 838 24.75 6 42.8 89 4.3 39.7
04:10 1009 29.8 838 24.75 6.2 43.2 86 4.1 39.4
04:15 1009 29.8 838 24.75 6.2 43.1 86 3.9 39.1
04:20 1009 29.8 838 24.75 6.2 43.2 86 4.1 39.3
04:25 1009 29.8 838 24.75 6.2 43.2 87 4.1 39.4
04:30 1009 29.8 838 24.75 6.2 43.1 86 4 39.1
04:35 1009 29.8 838 24.75 6.1 43.1 87 4.1 39.4
04:40 1009 29.8 838 24.75 6 42.7 89 4.2 39.6
04:45 1009 29.8 838 24.75 5.6 42.1 90 4.1 39.4
04:50 1008 29.77 838 24.75 5.4 41.7 91 4.1 39.3
04:55 1008 29.77 838 24.75 5.5 41.9 91 4.1 39.4
05:00 1008 29.77 838 24.75 5.7 42.3 89 4.1 39.4
05:05 1008 29.77 838 24.75 5.8 42.5 89 4.2 39.6
05:10 1008 29.77 838 24.75 5.9 42.6 90 4.4 39.9
05:15 1008 29.77 838 24.75 5.7 42.3 92 4.6 40.3
05:20 1008 29.77 837 24.72 5.6 42.1 93 4.6 40.3
05:25 1008 29.77 837 24.72 5.6 42 94 4.6 40.3
05:30 1008 29.77 837 24.72 5.6 42 94 4.7 40.4
05:35 1008 29.77 837 24.72 5.6 42 94 4.7 40.5
05:40 1008 29.77 838 24.75 5.5 41.9 94 4.6 40.2
05:45 1008 29.77 838 24.75 5.6 42.1 94 4.7 40.5
05:50 1008 29.77 838 24.75 5.8 42.5 93 4.8 40.6
05:55 1008 29.77 837 24.72 5.9 42.6 93 4.9 40.9
06:00 1008 29.77 838 24.75 6.2 43.1 93 5.1 41.2
06:05 1008 29.77 838 24.75 6.2 43.2 92 5 41
06:10 1008 29.77 837 24.72 6.2 43.1 92 5 41
06:15 1008 29.77 837 24.72 6 42.9 93 4.9 40.8
06:20 1008 29.77 837 24.72 6 42.8 92 4.7 40.5
06:25 1008 29.77 837 24.72 6 42.9 90 4.6 40.3
06:30 1008 29.77 837 24.72 6 42.9 92 4.8 40.6
06:35 1008 29.77 837 24.72 5.7 42.3 93 4.6 40.3
06:40 1008 29.77 837 24.72 5.6 42.1 92 4.4 40
06:45 1008 29.77 837 24.72 5.6 42.1 90 4.2 39.5
06:50 1008 29.77 838 24.75 5.8 42.4 89 4.2 39.5
06:55 1009 29.8 838 24.75 6.1 43 88 4.3 39.8
07:00 1009 29.8 838 24.75 6 42.9 88 4.2 39.6
07:05 1009 29.8 838 24.75 5.8 42.5 89 4.1 39.5
07:10 1009 29.8 838 24.75 5.9 42.6 90 4.3 39.8
07:15 1009 29.8 838 24.75 6 42.8 90 4.5 40
07:20 1009 29.8 838 24.75 5.9 42.7 90 4.4 40
07:25 1009 29.8 838 24.75 5.9 42.6 91 4.5 40.1
07:30 1009 29.8 838 24.75 6 42.7 91 4.6 40.3
07:35 1009 29.8 838 24.75 6 42.7 91 4.5 40.2
07:40 1009 29.8 838 24.75 6.1 42.9 90 4.6 40.2
07:45 1009 29.8 838 24.75 6.2 43.2 88 4.4 39.9
07:50 1009 29.8 838 24.75 6.1 43 88 4.3 39.8
07:55 1009 29.8 838 24.75 5.8 42.4 90 4.3 39.8
08:00 1009 29.8 838 24.75 5.7 42.2 92 4.4 39.9
08:05 1009 29.8 838 24.75 5.5 41.8 92 4.3 39.8
08:10 1009 29.8 838 24.75 5.3 41.6 94 4.4 39.9
08:15 1009 29.8 838 24.75 5.2 41.4 94 4.3 39.8
08:20 1009 29.8 838 24.75 5.2 41.3 95 4.4 39.9
08:25 1009 29.8 838 24.75 5.4 41.7 94 4.5 40.1
08:30 1009 29.8 839 24.78 5.5 41.9 93 4.5 40.2
08:35 1009 29.8 838 24.75 5.7 42.2 93 4.5 40.2
08:40 1009 29.8 838 24.75 5.7 42.3 92 4.5 40.1
08:45 1009 29.8 838 24.75 5.8 42.4 90 4.3 39.7
08:50 1009 29.8 838 24.75 5.9 42.6 90 4.4 39.9
08:55 1009 29.8 839 24.78 6.1 42.9 89 4.4 40
09:00 1009 29.8 839 24.78 5.9 42.6 89 4.2 39.5
09:05 1009 29.8 838 24.75 5.9 42.6 87 3.8 38.9
09:10 1009 29.8 838 24.75 5.8 42.4 87 3.8 38.9
09:15 1009 29.8 838 24.75 5.9 42.6 87 3.9 38.9
09:20 1009 29.8 838 24.75 5.9 42.7 86 3.8 38.9
09:25 1009 29.8 838 24.75 6.5 43.7 85 4.1 39.3
09:30 1009 29.8 838 24.75 6.9 44.4 82 4 39.3
09:35 1009 29.8 838 24.75 7.2 44.9 80 4 39.2
09:40 1009 29.8 838 24.75 7.4 45.4 80 4.2 39.6
09:45 1009 29.8 838 24.75 7.6 45.6 77 3.8 38.9
09:50 1009 29.8 838 24.75 7.4 45.3 76 3.5 38.3
09:55 1009 29.8 838 24.75 6.9 44.4 83 4.1 39.5
10:00 1009 29.8 838 24.75 6.9 44.5 82 4.1 39.4
10:05 1009 29.8 838 24.75 7.1 44.8 81 4.1 39.4
10:10 1009 29.8 838 24.75 7 44.6 80 3.8 38.8
10:15 1009 29.8 838 24.75 6.7 44.1 83 4 39.2
10:20 1009 29.8 838 24.75 6.4 43.6 82 3.6 38.4
10:25 1009 29.8 838 24.75 6.2 43.2 83 3.6 38.5
10:30 1009 29.8 838 24.75 6.2 43.1 87 4.2 39.6
10:35 1009 29.8 838 24.75 6.1 43 89 4.4 39.9
10:40 1009 29.8 838 24.75 6.2 43.2 85 3.9 39
10:45 1009 29.8 838 24.75 6.4 43.6 84 3.9 39
10:50 1009 29.8 838 24.75 6.7 44 85 4.3 39.7
10:55 1009 29.8 838 24.75 6.5 43.8 85 4.1 39.5
11:00 1009 29.8 838 24.75 6.5 43.6 86 4.3 39.8
11:05 1009 29.8 838 24.75 6.4 43.5 87 4.3 39.8
11:10 1009 29.8 838 24.75 6.1 43 90 4.6 40.3
11:15 1009 29.8 838 24.75 5.9 42.6 91 4.5 40.1
11:20 1009 29.8 838 24.75 5.9 42.6 86 3.7 38.7
11:25 1009 29.8 838 24.75 6.6 43.9 83 4 39.2
11:30 1009 29.8 838 24.75 7.4 45.3 83 4.8 40.6
11:35 1009 29.8 838 24.75 7.9 46.3 77 4.1 39.4
11:40 1009 29.8 838 24.75 7.5 45.6 78 4 39.3
11:45 1009 29.8 838 24.75 7.6 45.6 80 4.4 39.9
11:50 1009 29.8 838 24.75 8 46.4 81 5 41
11:55 1009 29.8 838 24.75 8.6 47.6 77 4.9 40.8
12:00 1009 29.8 838 24.75 8.1 46.5 78 4.5 40.1
12:05 1009 29.8 838 24.75 7.8 46 77 4 39.2
12:10 1008 29.77 838 24.75 7.6 45.7 77 3.8 38.8
12:15 1008 29.77 838 24.75 7.4 45.3 81 4.4 40
12:20 1009 29.8 838 24.75 7.3 45.2 78 3.8 38.9
12:25 1008 29.77 838 24.75 7.4 45.3 82 4.6 40.2
12:30 1008 29.77 837 24.72 7.5 45.6 81 4.4 40
12:35 1008 29.77 837 24.72 7.6 45.6 81 4.5 40.2
12:40 1008 29.77 837 24.72 7.7 45.8 83 5 41
12:45 1008 29.77 837 24.72 9.1 48.4 76 5.2 41.3
12:50 1008 29.77 837 24.72 9.8 49.7 76 5.9 42.6
12:55 1008 29.77 837 24.72 9.5 49 79 6 42.9
13:00 1008 29.77 837 24.72 9.7 49.4 78 6 42.7
13:05 1008 29.77 837 24.72 9.7 49.5 69 4.2 39.6
13:10 1008 29.77 837 24.72 9 48.3 69 3.7 38.6
13:15 1008 29.77 837 24.72 9.6 49.3 72 4.7 40.5
13:20 1008 29.77 837 24.72 10.3 50.6 68 4.7 40.5
13:25 1008 29.77 837 24.72 10.6 51.1 67 4.8 40.6
13:30 1008 29.77 837 24.72 10.8 51.5 64 4.4 39.8
13:35 1008 29.77 837 24.72 10.6 51 67 4.7 40.5
13:40 1008 29.77 837 24.72 11.5 52.6 63 4.6 40.3
13:45 1008 29.77 837 24.72 10.8 51.5 62 3.8 38.8
13:50 1008 29.77 837 24.72 10.4 50.8 62 3.6 38.5
13:55 1008 29.77 837 24.72 10.1 50.1 61 3 37.3
14:00 1008 29.77 837 24.72 10.3 50.5 62 3.4 38.1
14:05 1008 29.77 837 24.72 11.3 52.4 58 3.4 38.2
14:10 1008 29.77 837 24.72 12.1 53.8 58 4.1 39.5
14:15 1008 29.77 837 24.72 12 53.6 57 3.7 38.6
14:20 1008 29.77 837 24.72 12 53.6 59 4.2 39.6
14:25 1008 29.77 837 24.72 12.3 54.1 59 4.5 40
14:30 1008 29.77 837 24.72 12.8 55.1 57 4.6 40.2
14:35 1008 29.77 837 24.72 12.6 54.6 56 4.2 39.5
14:40 1008 29.77 837 24.72 12.1 53.8 58 4.3 39.7
14:45 1008 29.77 837 24.72 12.2 54 60 4.8 40.6
14:50 1008 29.77 837 24.72 12.2 54 58 4.2 39.5
14:55 1008 29.77 837 24.72 12.6 54.6 55 3.9 39.1
15:00 1008 29.77 837 24.72 12.9 55.1 56 4.4 39.9
15:05 1008 29.77 837 24.72 13.1 55.6 52 3.6 38.4
15:10 1008 29.77 837 24.72 13.1 55.6 52 3.5 38.3
15:15 1008 29.77 837 24.72 12.9 55.2 53 3.5 38.3
15:20 1008 29.77 837 24.72 11.9 53.5 57 3.7 38.7
15:25 1008 29.77 837 24.72 11.8 53.2 54 2.9 37.3
15:30 1008 29.77 837 24.72 12.5 54.5 56 4.1 39.4
15:35 1008 29.77 837 24.72 11.7 53.1 57 3.5 38.3
15:40 1008 29.77 837 24.72 12.4 54.2 54 3.3 37.9
15:45 1008 29.77 837 24.72 13.4 56.1 51 3.5 38.3
15:50 1008 29.77 837 24.72 12.9 55.2 52 3.5 38.2
15:55 1008 29.77 837 24.72 13 55.5 50 2.8 37.1
16:00 1008 29.77 837 24.72 12.8 55.1 52 3.2 37.8
16:05 1008 29.77 837 24.72 12.1 53.7 54 3.1 37.7
16:10 1008 29.77 837 24.72 12 53.5 53 2.8 37.1
16:15 1008 29.77 837 24.72 12.2 54 51 2.6 36.7
16:20 1008 29.77 837 24.72 12.8 55.1 49 2.5 36.6
16:25 1008 29.77 837 24.72 12.6 54.6 52 2.9 37.2
16:30 1008 29.77 837 24.72 12.8 55.1 48 2.1 35.8
16:35 1008 29.77 837 24.72 13 55.4 50 3 37.4
16:40 1008 29.77 837 24.72 12.6 54.7 49 2.4 36.3
16:45 1008 29.77 837 24.72 11.9 53.4 51 2.2 35.9
16:50 1008 29.77 837 24.72 12.6 54.8 48 1.9 35.5
16:55 1008 29.77 837 24.72 13.9 56.9 49 3.4 38.2
17:00 1008 29.77 837 24.72 13.7 56.6 58 5.6 42.1
17:05 1008 29.77 837 24.72 12.4 54.4 62 5.5 41.9
17:10 1008 29.77 837 24.72 11.7 53.1 64 5.1 41.3
17:15 1008 29.77 837 24.72 11.5 52.7 64 5 40.9
17:20 1008 29.77 837 24.72 11.1 52 65 4.8 40.7
17:25 1008 29.77 837 24.72 10.8 51.4 66 4.6 40.3
17:30 1008 29.77 837 24.72 10.6 51 65 4.2 39.6
17:35 1008 29.77 837 24.72 10.6 51 65 4.3 39.8
17:40 1008 29.77 837 24.72 10.5 50.8 67 4.7 40.5
17:45 1008 29.77 837 24.72 10.4 50.8 70 5.3 41.5
17:50 1008 29.77 837 24.72 10.3 50.5 71 5.4 41.6
17:55 1008 29.77 837 24.72 10.5 50.8 70 5.3 41.5
18:00 1008 29.77 837 24.72 10.6 51.1 70 5.4 41.8
18:05 1008 29.77 837 24.72 10.9 51.6 68 5.2 41.3
18:10 1008 29.77 838 24.75 11.5 52.8 64 5 41
18:15 1009 29.8 838 24.75 11.7 53 62 4.8 40.7
18:20 1009 29.8 838 24.75 11.7 53 61 4.5 40.1
18:25 1009 29.8 838 24.75 11.9 53.5 59 4.2 39.5
18:30 1009 29.8 838 24.75 12 53.5 57 3.7 38.7
18:35 1009 29.8 838 24.75 12 53.7 57 4 39.1
18:40 1009 29.8 838 24.75 12.3 54.2 56 3.9 39.1
18:45 1009 29.8 838 24.75 12.1 53.9 57 3.9 39
18:50 1009 29.8 838 24.75 11.6 52.9 58 3.8 38.8
18:55 1009 29.8 838 24.75 11.1 52 60 3.7 38.7
19:00 1009 29.8 838 24.75 11.1 52 63 4.3 39.8
19:05 1009 29.8 838 24.75 10.6 51 65 4.4 39.8
19:10 1009 29.8 838 24.75 10.4 50.7 67 4.5 40
19:15 1009 29.8 838 24.75 10.3 50.5 66 4.3 39.7
19:20 1009 29.8 838 24.75 10 50 66 4.1 39.4
19:25 1009 29.8 838 24.75 9.8 49.7 66 3.7 38.7
19:30 1009 29.8 838 24.75 9.7 49.5 67 3.8 38.9
19:35 1009 29.8 838 24.75 9.6 49.3 67 3.8 38.8
19:40 1009 29.8 838 24.75 9.4 48.9 66 3.4 38.1
19:45 1009 29.8 838 24.75 9.3 48.7 67 3.6 38.4
19:50 1009 29.8 838 24.75 9 48.2 71 4 39.2
19:55 1009 29.8 838 24.75 8.7 47.6 74 4.4 39.9
20:00 1009 29.8 838 24.75 8.6 47.5 75 4.5 40
20:05 1009 29.8 839 24.78 8.6 47.4 78 4.9 40.9
20:10 1009 29.8 839 24.78 7.9 46.1 76 3.9 39
20:15 1010 29.83 839 24.78 6.8 44.2 81 3.8 38.9
20:20 1010 29.83 839 24.78 6.5 43.7 81 3.5 38.3
20:25 1010 29.83 839 24.78 6.4 43.6 85 4.1 39.4
20:30 1009 29.8 839 24.78 6.6 43.8 82 3.7 38.7
20:35 1010 29.83 839 24.78 6.7 44.1 81 3.8 38.8
20:40 1010 29.83 839 24.78 6.7 44 80 3.5 38.2
20:45 1010 29.83 839 24.78 6.7 44 81 3.7 38.6
20:50 1010 29.83 839 24.78 6.7 44 81 3.6 38.5
20:55 1010 29.83 839 24.78 6.5 43.7 83 3.8 38.9
21:00 1010 29.83 839 24.78 6.4 43.5 83 3.7 38.7
21:05 1010 29.83 839 24.78 6.2 43.2 84 3.7 38.6
21:10 1010 29.83 839 24.78 6.2 43.1 85 3.8 38.8
21:15 1010 29.83 840 24.81 6.1 43 84 3.6 38.5
21:20 1011 29.85 840 24.81 6 42.8 84 3.5 38.2
21:25 1011 29.85 840 24.81 5.8 42.4 84 3.2 37.8
21:30 1011 29.85 840 24.81 5.6 42.1 85 3.2 37.8
21:35 1011 29.85 840 24.81 5.6 42 85 3.2 37.7
21:40 1011 29.85 840 24.81 5.5 41.9 86 3.3 38
21:45 1011 29.85 840 24.81 5.5 41.9 86 3.3 37.9
21:50 1011 29.85 840 24.81 5.5 41.9 87 3.5 38.3
21:55 1011 29.85 840 24.81 5.6 42.1 85 3.4 38.1
22:00 1011 29.85 840 24.81 5.5 41.9 85 3.2 37.7
22:05 1011 29.85 840 24.81 5.3 41.5 86 3.1 37.7
22:10 1011 29.85 840 24.81 5.2 41.3 86 3 37.4
22:15 1011 29.85 840 24.81 4.9 40.8 84 2.4 36.3
22:20 1011 29.85 841 24.83 4.6 40.3 85 2.2 36
22:25 1012 29.88 841 24.83 4.5 40.1 86 2.4 36.2
22:30 1012 29.88 841 24.83 4.5 40.1 86 2.4 36.3
22:35 1012 29.88 841 24.83 4.7 40.5 84 2.3 36.1
22:40 1012 29.88 841 24.83 4.7 40.4 85 2.4 36.3
22:45 1012 29.88 841 24.83 4.7 40.5 86 2.6 36.7
22:50 1012 29.88 841 24.83 4.6 40.3 86 2.4 36.4
22:55 1012 29.88 841 24.83 4.6 40.3 86 2.4 36.4
23:00 1012 29.88 841 24.83 4.7 40.4 86 2.5 36.4
23:05 1012 29.88 841 24.83 4.7 40.4 86 2.5 36.5
23:10 1012 29.88 841 24.83 4.7 40.4 87 2.7 36.8
23:15 1012 29.88 841 24.83 4.6 40.2 88 2.7 36.8
23:20 1012 29.88 841 24.83 4.5 40.1 88 2.7 36.8
23:25 1012 29.88 841 24.83 4.4 39.9 89 2.7 36.8
23:30 1012 29.88 841 24.83 4.5 40.1 88 2.6 36.8
23:35 1012 29.88 841 24.83 4.6 40.2 87 2.6 36.7
23:40 1012 29.88 841 24.83 4.5 40.2 87 2.5 36.6
23:45 1012 29.88 841 24.83 4.4 39.9 88 2.5 36.5
23:50 1012 29.88 841 24.83 4 39.3 90 2.5 36.5
23:55 1012 29.88 841 24.83 3.9 39 91 2.6 36.6
24:00 1012 29.88 841 24.83 4.1 39.3 91 2.7 36.8